sensor_id;sensor_type;location;lat;lon;timestamp;temperature;humidity
47310;DHT22;33046;52.270;6.832;2023-04-06T00:02:05;5.60;80.60
47310;DHT22;33046;52.270;6.832;2023-04-06T00:04:11;5.50;81.10
47310;DHT22;33046;52.270;6.832;2023-04-06T00:06:18;5.50;80.90
47310;DHT22;33046;52.270;6.832;2023-04-06T00:08:25;5.50;81.10
47310;DHT22;33046;52.270;6.832;2023-04-06T00:10:32;5.50;81.50
47310;DHT22;33046;52.270;6.832;2023-04-06T00:12:39;5.40;81.60
47310;DHT22;33046;52.270;6.832;2023-04-06T00:14:46;5.40;82.20
47310;DHT22;33046;52.270;6.832;2023-04-06T00:16:55;5.40;82.10
47310;DHT22;33046;52.270;6.832;2023-04-06T00:19:02;5.30;81.90
47310;DHT22;33046;52.270;6.832;2023-04-06T00:21:12;5.30;82.10
47310;DHT22;33046;52.270;6.832;2023-04-06T00:23:18;5.30;82.40
47310;DHT22;33046;52.270;6.832;2023-04-06T00:25:25;5.20;82.40
47310;DHT22;33046;52.270;6.832;2023-04-06T00:27:32;5.20;82.40
47310;DHT22;33046;52.270;6.832;2023-04-06T00:29:39;5.20;81.60
47310;DHT22;33046;52.270;6.832;2023-04-06T00:31:46;5.10;81.80
47310;DHT22;33046;52.270;6.832;2023-04-06T00:33:54;5.10;81.70
47310;DHT22;33046;52.270;6.832;2023-04-06T00:36:01;5.10;82.30
47310;DHT22;33046;52.270;6.832;2023-04-06T00:38:08;5.10;82.30
47310;DHT22;33046;52.270;6.832;2023-04-06T00:40:15;5.10;82.40
47310;DHT22;33046;52.270;6.832;2023-04-06T00:42:22;5.10;82.40
47310;DHT22;33046;52.270;6.832;2023-04-06T00:44:29;5.00;82.20
47310;DHT22;33046;52.270;6.832;2023-04-06T00:46:36;5.00;83.00
47310;DHT22;33046;52.270;6.832;2023-04-06T00:48:42;5.00;82.70
47310;DHT22;33046;52.270;6.832;2023-04-06T00:50:51;5.00;83.00
47310;DHT22;33046;52.270;6.832;2023-04-06T00:52:58;5.00;83.00
47310;DHT22;33046;52.270;6.832;2023-04-06T00:55:07;5.00;82.80
47310;DHT22;33046;52.270;6.832;2023-04-06T00:57:19;5.00;83.50
47310;DHT22;33046;52.270;6.832;2023-04-06T00:59:32;4.90;83.60
47310;DHT22;33046;52.270;6.832;2023-04-06T01:01:41;4.90;84.60
47310;DHT22;33046;52.270;6.832;2023-04-06T01:04:03;4.90;84.90
47310;DHT22;33046;52.270;6.832;2023-04-06T01:06:17;4.80;85.20
47310;DHT22;33046;52.270;6.832;2023-04-06T01:08:30;4.80;85.20
47310;DHT22;33046;52.270;6.832;2023-04-06T01:10:50;4.80;84.50
47310;DHT22;33046;52.270;6.832;2023-04-06T01:13:06;4.80;84.60
47310;DHT22;33046;52.270;6.832;2023-04-06T01:15:32;4.80;84.40
47310;DHT22;33046;52.270;6.832;2023-04-06T01:17:40;4.70;84.60
47310;DHT22;33046;52.270;6.832;2023-04-06T01:19:52;4.70;85.00
47310;DHT22;33046;52.270;6.832;2023-04-06T01:22:06;4.70;85.10
47310;DHT22;33046;52.270;6.832;2023-04-06T01:24:31;4.70;85.00
47310;DHT22;33046;52.270;6.832;2023-04-06T01:26:56;4.60;85.20
47310;DHT22;33046;52.270;6.832;2023-04-06T01:29:06;4.60;84.60
47310;DHT22;33046;52.270;6.832;2023-04-06T01:31:13;4.60;84.40
47310;DHT22;33046;52.270;6.832;2023-04-06T01:33:26;4.60;84.30
47310;DHT22;33046;52.270;6.832;2023-04-06T01:35:39;4.50;84.40
47310;DHT22;33046;52.270;6.832;2023-04-06T01:37:54;4.50;84.10
47310;DHT22;33046;52.270;6.832;2023-04-06T01:40:10;4.50;83.70
47310;DHT22;33046;52.270;6.832;2023-04-06T01:42:23;4.50;84.00
47310;DHT22;33046;52.270;6.832;2023-04-06T01:44:30;4.50;84.30
47310;DHT22;33046;52.270;6.832;2023-04-06T01:46:46;4.40;84.50
47310;DHT22;33046;52.270;6.832;2023-04-06T01:48:57;4.40;85.00
47310;DHT22;33046;52.270;6.832;2023-04-06T01:51:30;4.40;85.30
47310;DHT22;33046;52.270;6.832;2023-04-06T01:53:40;4.40;84.90
47310;DHT22;33046;52.270;6.832;2023-04-06T01:55:48;4.40;84.60
47310;DHT22;33046;52.270;6.832;2023-04-06T01:58:05;4.30;84.40
47310;DHT22;33046;52.270;6.832;2023-04-06T02:00:16;4.30;84.20
47310;DHT22;33046;52.270;6.832;2023-04-06T02:02:30;4.30;84.20
47310;DHT22;33046;52.270;6.832;2023-04-06T02:04:43;4.20;84.50
47310;DHT22;33046;52.270;6.832;2023-04-06T02:06:52;4.20;84.60
47310;DHT22;33046;52.270;6.832;2023-04-06T02:09:02;4.20;84.60
47310;DHT22;33046;52.270;6.832;2023-04-06T02:11:11;4.20;84.60
47310;DHT22;33046;52.270;6.832;2023-04-06T02:13:23;4.20;83.90
47310;DHT22;33046;52.270;6.832;2023-04-06T02:15:32;4.20;83.50
47310;DHT22;33046;52.270;6.832;2023-04-06T02:17:38;4.20;83.70
47310;DHT22;33046;52.270;6.832;2023-04-06T02:19:45;4.20;83.90
47310;DHT22;33046;52.270;6.832;2023-04-06T02:21:52;4.20;84.80
47310;DHT22;33046;52.270;6.832;2023-04-06T02:23:59;4.20;85.00
47310;DHT22;33046;52.270;6.832;2023-04-06T02:26:06;4.20;84.90
47310;DHT22;33046;52.270;6.832;2023-04-06T02:28:14;4.10;85.10
47310;DHT22;33046;52.270;6.832;2023-04-06T02:30:20;4.10;85.10
47310;DHT22;33046;52.270;6.832;2023-04-06T02:32:28;4.10;85.00
47310;DHT22;33046;52.270;6.832;2023-04-06T02:34:36;4.00;85.30
47310;DHT22;33046;52.270;6.832;2023-04-06T02:36:43;4.00;85.80
47310;DHT22;33046;52.270;6.832;2023-04-06T02:38:49;4.00;85.90
47310;DHT22;33046;52.270;6.832;2023-04-06T02:40:56;4.00;85.70
47310;DHT22;33046;52.270;6.832;2023-04-06T02:43:06;3.90;85.50
47310;DHT22;33046;52.270;6.832;2023-04-06T02:45:14;4.00;85.80
47310;DHT22;33046;52.270;6.832;2023-04-06T02:47:24;3.90;86.80
47310;DHT22;33046;52.270;6.832;2023-04-06T02:49:31;3.90;87.00
47310;DHT22;33046;52.270;6.832;2023-04-06T02:51:38;3.90;86.90
47310;DHT22;33046;52.270;6.832;2023-04-06T02:53:55;3.90;86.50
47310;DHT22;33046;52.270;6.832;2023-04-06T02:56:02;3.90;86.60
47310;DHT22;33046;52.270;6.832;2023-04-06T02:58:21;3.90;86.50
47310;DHT22;33046;52.270;6.832;2023-04-06T03:00:34;3.80;86.80
47310;DHT22;33046;52.270;6.832;2023-04-06T03:02:41;3.80;86.50
47310;DHT22;33046;52.270;6.832;2023-04-06T03:04:52;3.80;86.50
47310;DHT22;33046;52.270;6.832;2023-04-06T03:07:05;3.80;86.70
47310;DHT22;33046;52.270;6.832;2023-04-06T03:09:15;3.80;86.70
47310;DHT22;33046;52.270;6.832;2023-04-06T03:11:23;3.80;86.70
47310;DHT22;33046;52.270;6.832;2023-04-06T03:13:31;3.70;86.50
47310;DHT22;33046;52.270;6.832;2023-04-06T03:15:40;3.70;86.40
47310;DHT22;33046;52.270;6.832;2023-04-06T03:17:53;3.70;87.00
47310;DHT22;33046;52.270;6.832;2023-04-06T03:20:12;3.70;86.90
47310;DHT22;33046;52.270;6.832;2023-04-06T03:22:19;3.70;87.00
47310;DHT22;33046;52.270;6.832;2023-04-06T03:24:27;3.60;86.10
47310;DHT22;33046;52.270;6.832;2023-04-06T03:26:34;3.60;86.50
47310;DHT22;33046;52.270;6.832;2023-04-06T03:28:44;3.60;86.50
47310;DHT22;33046;52.270;6.832;2023-04-06T03:30:52;3.60;86.30
47310;DHT22;33046;52.270;6.832;2023-04-06T03:33:15;3.60;86.50
47310;DHT22;33046;52.270;6.832;2023-04-06T03:35:31;3.60;87.00
47310;DHT22;33046;52.270;6.832;2023-04-06T03:37:38;3.60;87.40
47310;DHT22;33046;52.270;6.832;2023-04-06T03:39:44;3.60;87.50
47310;DHT22;33046;52.270;6.832;2023-04-06T03:41:56;3.60;87.50
47310;DHT22;33046;52.270;6.832;2023-04-06T03:44:15;3.50;87.30
47310;DHT22;33046;52.270;6.832;2023-04-06T03:46:25;3.50;87.70
47310;DHT22;33046;52.270;6.832;2023-04-06T03:48:34;3.50;87.90
47310;DHT22;33046;52.270;6.832;2023-04-06T03:50:44;3.50;87.90
47310;DHT22;33046;52.270;6.832;2023-04-06T03:52:51;3.50;88.10
47310;DHT22;33046;52.270;6.832;2023-04-06T03:54:57;3.50;88.00
47310;DHT22;33046;52.270;6.832;2023-04-06T03:57:04;3.40;88.10
47310;DHT22;33046;52.270;6.832;2023-04-06T03:59:11;3.40;88.50
47310;DHT22;33046;52.270;6.832;2023-04-06T04:01:18;3.40;88.40
47310;DHT22;33046;52.270;6.832;2023-04-06T04:03:26;3.40;88.40
47310;DHT22;33046;52.270;6.832;2023-04-06T04:05:33;3.40;88.70
47310;DHT22;33046;52.270;6.832;2023-04-06T04:07:40;3.40;88.40
47310;DHT22;33046;52.270;6.832;2023-04-06T04:09:49;3.40;88.60
47310;DHT22;33046;52.270;6.832;2023-04-06T04:11:56;3.40;88.80
47310;DHT22;33046;52.270;6.832;2023-04-06T04:14:03;3.30;88.90
47310;DHT22;33046;52.270;6.832;2023-04-06T04:16:09;3.30;89.20
47310;DHT22;33046;52.270;6.832;2023-04-06T04:18:16;3.30;89.40
47310;DHT22;33046;52.270;6.832;2023-04-06T04:20:24;3.30;89.80
47310;DHT22;33046;52.270;6.832;2023-04-06T04:22:31;3.20;89.80
47310;DHT22;33046;52.270;6.832;2023-04-06T04:24:38;3.20;90.00
47310;DHT22;33046;52.270;6.832;2023-04-06T04:26:45;3.30;89.60
47310;DHT22;33046;52.270;6.832;2023-04-06T04:28:51;3.30;90.10
47310;DHT22;33046;52.270;6.832;2023-04-06T04:30:58;3.30;89.90
47310;DHT22;33046;52.270;6.832;2023-04-06T04:33:07;3.20;90.00
47310;DHT22;33046;52.270;6.832;2023-04-06T04:35:14;3.20;90.10
47310;DHT22;33046;52.270;6.832;2023-04-06T04:37:23;3.20;90.00
47310;DHT22;33046;52.270;6.832;2023-04-06T04:39:34;3.20;89.70
47310;DHT22;33046;52.270;6.832;2023-04-06T04:41:45;3.10;89.70
47310;DHT22;33046;52.270;6.832;2023-04-06T04:43:52;3.20;89.80
47310;DHT22;33046;52.270;6.832;2023-04-06T04:46:01;3.10;89.90
47310;DHT22;33046;52.270;6.832;2023-04-06T04:48:18;3.20;90.10
47310;DHT22;33046;52.270;6.832;2023-04-06T04:50:31;3.10;89.60
47310;DHT22;33046;52.270;6.832;2023-04-06T04:52:39;3.10;89.40
47310;DHT22;33046;52.270;6.832;2023-04-06T04:55:01;3.10;89.10
47310;DHT22;33046;52.270;6.832;2023-04-06T04:57:08;3.10;89.10
47310;DHT22;33046;52.270;6.832;2023-04-06T04:59:20;3.10;89.60
47310;DHT22;33046;52.270;6.832;2023-04-06T05:01:34;3.10;89.10
47310;DHT22;33046;52.270;6.832;2023-04-06T05:03:50;3.10;89.50
47310;DHT22;33046;52.270;6.832;2023-04-06T05:05:57;3.10;89.70
47310;DHT22;33046;52.270;6.832;2023-04-06T05:08:08;3.10;89.30
47310;DHT22;33046;52.270;6.832;2023-04-06T05:10:22;3.10;89.30
47310;DHT22;33046;52.270;6.832;2023-04-06T05:12:37;3.10;89.10
47310;DHT22;33046;52.270;6.832;2023-04-06T05:14:46;3.10;89.40
47310;DHT22;33046;52.270;6.832;2023-04-06T05:16:56;3.10;89.70
47310;DHT22;33046;52.270;6.832;2023-04-06T05:19:05;3.10;89.20
47310;DHT22;33046;52.270;6.832;2023-04-06T05:21:19;3.10;89.00
47310;DHT22;33046;52.270;6.832;2023-04-06T05:23:44;3.10;89.20
47310;DHT22;33046;52.270;6.832;2023-04-06T05:25:51;3.10;89.10
47310;DHT22;33046;52.270;6.832;2023-04-06T05:28:01;3.10;89.00
47310;DHT22;33046;52.270;6.832;2023-04-06T05:30:11;3.10;88.70
47310;DHT22;33046;52.270;6.832;2023-04-06T05:32:23;3.10;88.80
47310;DHT22;33046;52.270;6.832;2023-04-06T05:34:30;3.20;88.60
47310;DHT22;33046;52.270;6.832;2023-04-06T05:36:41;3.20;89.30
47310;DHT22;33046;52.270;6.832;2023-04-06T05:38:58;3.20;89.10
47310;DHT22;33046;52.270;6.832;2023-04-06T05:41:24;3.20;89.00
47310;DHT22;33046;52.270;6.832;2023-04-06T05:43:30;3.20;89.60
47310;DHT22;33046;52.270;6.832;2023-04-06T05:45:39;3.30;89.80
47310;DHT22;33046;52.270;6.832;2023-04-06T05:47:46;3.30;89.90
47310;DHT22;33046;52.270;6.832;2023-04-06T05:50:05;3.30;90.10
47310;DHT22;33046;52.270;6.832;2023-04-06T05:52:15;3.40;90.10
47310;DHT22;33046;52.270;6.832;2023-04-06T05:54:26;3.40;90.00
47310;DHT22;33046;52.270;6.832;2023-04-06T05:56:38;3.40;89.70
47310;DHT22;33046;52.270;6.832;2023-04-06T05:58:48;3.50;89.70
47310;DHT22;33046;52.270;6.832;2023-04-06T06:01:02;3.50;89.90
47310;DHT22;33046;52.270;6.832;2023-04-06T06:03:16;3.50;90.20
47310;DHT22;33046;52.270;6.832;2023-04-06T06:05:30;3.50;90.60
47310;DHT22;33046;52.270;6.832;2023-04-06T06:07:43;3.60;90.30
47310;DHT22;33046;52.270;6.832;2023-04-06T06:09:51;3.60;90.40
47310;DHT22;33046;52.270;6.832;2023-04-06T06:12:07;3.70;90.30
47310;DHT22;33046;52.270;6.832;2023-04-06T06:14:14;3.70;90.30
47310;DHT22;33046;52.270;6.832;2023-04-06T06:16:21;3.80;90.50
47310;DHT22;33046;52.270;6.832;2023-04-06T06:18:28;3.80;90.70
47310;DHT22;33046;52.270;6.832;2023-04-06T06:20:35;3.80;90.90
47310;DHT22;33046;52.270;6.832;2023-04-06T06:22:44;3.90;90.70
47310;DHT22;33046;52.270;6.832;2023-04-06T06:24:57;4.00;90.60
47310;DHT22;33046;52.270;6.832;2023-04-06T06:27:04;4.00;90.50
47310;DHT22;33046;52.270;6.832;2023-04-06T06:29:13;4.10;90.70
47310;DHT22;33046;52.270;6.832;2023-04-06T06:31:20;4.20;90.70
47310;DHT22;33046;52.270;6.832;2023-04-06T06:33:26;4.20;90.70
47310;DHT22;33046;52.270;6.832;2023-04-06T06:35:35;4.20;90.70
47310;DHT22;33046;52.270;6.832;2023-04-06T06:37:43;4.30;90.80
47310;DHT22;33046;52.270;6.832;2023-04-06T06:39:53;4.30;90.80
47310;DHT22;33046;52.270;6.832;2023-04-06T06:42:02;4.40;90.90
47310;DHT22;33046;52.270;6.832;2023-04-06T06:44:26;4.50;91.00
47310;DHT22;33046;52.270;6.832;2023-04-06T06:46:33;4.50;91.00
47310;DHT22;33046;52.270;6.832;2023-04-06T06:48:40;4.60;91.10
47310;DHT22;33046;52.270;6.832;2023-04-06T06:50:47;4.70;90.80
47310;DHT22;33046;52.270;6.832;2023-04-06T06:52:54;4.80;90.70
47310;DHT22;33046;52.270;6.832;2023-04-06T06:55:01;4.90;90.50
47310;DHT22;33046;52.270;6.832;2023-04-06T06:57:09;5.00;90.50
47310;DHT22;33046;52.270;6.832;2023-04-06T06:59:17;5.10;90.50
47310;DHT22;33046;52.270;6.832;2023-04-06T07:01:23;5.20;90.30
47310;DHT22;33046;52.270;6.832;2023-04-06T07:03:30;5.40;90.00
47310;DHT22;33046;52.270;6.832;2023-04-06T07:05:37;5.50;90.10
47310;DHT22;33046;52.270;6.832;2023-04-06T07:07:45;5.60;90.10
47310;DHT22;33046;52.270;6.832;2023-04-06T07:09:52;5.80;90.10
47310;DHT22;33046;52.270;6.832;2023-04-06T07:11:58;5.90;90.10
47310;DHT22;33046;52.270;6.832;2023-04-06T07:14:08;6.00;89.40
47310;DHT22;33046;52.270;6.832;2023-04-06T07:16:15;6.10;88.80
47310;DHT22;33046;52.270;6.832;2023-04-06T07:18:22;6.20;88.00
47310;DHT22;33046;52.270;6.832;2023-04-06T07:20:29;6.30;88.50
47310;DHT22;33046;52.270;6.832;2023-04-06T07:22:35;6.40;90.60
47310;DHT22;33046;52.270;6.832;2023-04-06T07:24:42;6.40;91.70
47310;DHT22;33046;52.270;6.832;2023-04-06T07:26:49;6.40;91.50
47310;DHT22;33046;52.270;6.832;2023-04-06T07:28:56;6.50;91.60
47310;DHT22;33046;52.270;6.832;2023-04-06T07:31:06;6.50;91.30
47310;DHT22;33046;52.270;6.832;2023-04-06T07:33:13;6.60;92.20
47310;DHT22;33046;52.270;6.832;2023-04-06T07:35:21;6.70;92.20
47310;DHT22;33046;52.270;6.832;2023-04-06T07:37:28;6.80;92.30
47310;DHT22;33046;52.270;6.832;2023-04-06T07:39:35;6.80;91.80
47310;DHT22;33046;52.270;6.832;2023-04-06T07:41:42;6.90;93.00
47310;DHT22;33046;52.270;6.832;2023-04-06T07:43:49;7.00;93.10
47310;DHT22;33046;52.270;6.832;2023-04-06T07:45:56;7.10;91.50
47310;DHT22;33046;52.270;6.832;2023-04-06T07:48:05;7.10;91.40
47310;DHT22;33046;52.270;6.832;2023-04-06T07:50:13;7.20;92.50
47310;DHT22;33046;52.270;6.832;2023-04-06T07:52:20;7.30;92.30
47310;DHT22;33046;52.270;6.832;2023-04-06T07:54:27;7.40;91.90
47310;DHT22;33046;52.270;6.832;2023-04-06T07:56:34;7.50;92.20
47310;DHT22;33046;52.270;6.832;2023-04-06T07:58:41;7.50;91.30
47310;DHT22;33046;52.270;6.832;2023-04-06T08:00:47;7.60;90.70
47310;DHT22;33046;52.270;6.832;2023-04-06T08:02:54;7.70;91.00
47310;DHT22;33046;52.270;6.832;2023-04-06T08:05:03;7.70;89.80
47310;DHT22;33046;52.270;6.832;2023-04-06T08:07:09;7.80;90.40
47310;DHT22;33046;52.270;6.832;2023-04-06T08:09:16;7.80;90.30
47310;DHT22;33046;52.270;6.832;2023-04-06T08:11:23;7.90;90.50
47310;DHT22;33046;52.270;6.832;2023-04-06T08:13:30;8.00;90.30
47310;DHT22;33046;52.270;6.832;2023-04-06T08:15:37;8.00;90.30
47310;DHT22;33046;52.270;6.832;2023-04-06T08:17:43;8.10;90.50
47310;DHT22;33046;52.270;6.832;2023-04-06T08:19:50;8.20;89.50
47310;DHT22;33046;52.270;6.832;2023-04-06T08:21:58;8.30;88.10
47310;DHT22;33046;52.270;6.832;2023-04-06T08:24:05;8.40;86.40
47310;DHT22;33046;52.270;6.832;2023-04-06T08:26:12;8.50;88.30
47310;DHT22;33046;52.270;6.832;2023-04-06T08:28:19;8.60;88.40
47310;DHT22;33046;52.270;6.832;2023-04-06T08:30:26;8.70;88.20
47310;DHT22;33046;52.270;6.832;2023-04-06T08:32:33;8.70;88.30
47310;DHT22;33046;52.270;6.832;2023-04-06T08:34:39;8.80;88.10
47310;DHT22;33046;52.270;6.832;2023-04-06T08:36:46;8.90;87.70
47310;DHT22;33046;52.270;6.832;2023-04-06T08:38:54;9.00;88.40
47310;DHT22;33046;52.270;6.832;2023-04-06T08:41:07;9.10;90.10
47310;DHT22;33046;52.270;6.832;2023-04-06T08:43:14;9.20;88.60
47310;DHT22;33046;52.270;6.832;2023-04-06T08:45:23;9.20;88.60
47310;DHT22;33046;52.270;6.832;2023-04-06T08:47:30;9.30;85.70
47310;DHT22;33046;52.270;6.832;2023-04-06T08:49:37;9.40;85.20
47310;DHT22;33046;52.270;6.832;2023-04-06T08:51:44;9.50;88.10
47310;DHT22;33046;52.270;6.832;2023-04-06T08:53:51;9.70;87.10
47310;DHT22;33046;52.270;6.832;2023-04-06T08:56:01;9.70;84.60
47310;DHT22;33046;52.270;6.832;2023-04-06T08:58:08;9.90;85.50
47310;DHT22;33046;52.270;6.832;2023-04-06T09:00:15;10.00;85.10
47310;DHT22;33046;52.270;6.832;2023-04-06T09:02:23;10.10;83.50
47310;DHT22;33046;52.270;6.832;2023-04-06T09:04:30;10.20;84.20
47310;DHT22;33046;52.270;6.832;2023-04-06T09:06:38;10.30;83.40
47310;DHT22;33046;52.270;6.832;2023-04-06T09:08:44;10.50;79.60
47310;DHT22;33046;52.270;6.832;2023-04-06T09:10:52;10.70;76.70
47310;DHT22;33046;52.270;6.832;2023-04-06T09:13:04;10.80;75.80
47310;DHT22;33046;52.270;6.832;2023-04-06T09:15:18;10.80;75.00
47310;DHT22;33046;52.270;6.832;2023-04-06T09:17:27;11.00;77.40
47310;DHT22;33046;52.270;6.832;2023-04-06T09:19:45;11.10;75.70
47310;DHT22;33046;52.270;6.832;2023-04-06T09:22:01;11.20;73.80
47310;DHT22;33046;52.270;6.832;2023-04-06T09:24:08;11.30;73.80
47310;DHT22;33046;52.270;6.832;2023-04-06T09:26:17;11.40;72.90
47310;DHT22;33046;52.270;6.832;2023-04-06T09:28:25;11.40;73.40
47310;DHT22;33046;52.270;6.832;2023-04-06T09:30:32;11.50;71.60
47310;DHT22;33046;52.270;6.832;2023-04-06T09:32:49;11.60;72.10
47310;DHT22;33046;52.270;6.832;2023-04-06T09:35:06;11.60;72.40
47310;DHT22;33046;52.270;6.832;2023-04-06T09:37:13;11.80;71.30
47310;DHT22;33046;52.270;6.832;2023-04-06T09:39:20;11.80;70.50
47310;DHT22;33046;52.270;6.832;2023-04-06T09:41:28;11.90;71.00
47310;DHT22;33046;52.270;6.832;2023-04-06T09:43:37;11.90;70.50
47310;DHT22;33046;52.270;6.832;2023-04-06T09:45:43;12.00;69.90
47310;DHT22;33046;52.270;6.832;2023-04-06T09:47:51;12.00;68.90
47310;DHT22;33046;52.270;6.832;2023-04-06T09:49:59;12.10;68.10
47310;DHT22;33046;52.270;6.832;2023-04-06T09:52:06;12.10;69.30
47310;DHT22;33046;52.270;6.832;2023-04-06T09:54:18;12.30;69.30
47310;DHT22;33046;52.270;6.832;2023-04-06T09:56:28;12.30;68.80
47310;DHT22;33046;52.270;6.832;2023-04-06T09:58:40;12.40;68.70
47310;DHT22;33046;52.270;6.832;2023-04-06T10:00:54;12.50;68.70
47310;DHT22;33046;52.270;6.832;2023-04-06T10:03:11;12.60;67.10
47310;DHT22;33046;52.270;6.832;2023-04-06T10:05:29;12.60;65.90
47310;DHT22;33046;52.270;6.832;2023-04-06T10:07:39;12.70;65.40
47310;DHT22;33046;52.270;6.832;2023-04-06T10:09:53;12.70;67.30
47310;DHT22;33046;52.270;6.832;2023-04-06T10:12:02;12.80;66.40
47310;DHT22;33046;52.270;6.832;2023-04-06T10:14:10;12.90;66.00
47310;DHT22;33046;52.270;6.832;2023-04-06T10:16:17;12.90;64.50
47310;DHT22;33046;52.270;6.832;2023-04-06T10:18:24;13.00;64.70
47310;DHT22;33046;52.270;6.832;2023-04-06T10:20:36;13.00;66.20
47310;DHT22;33046;52.270;6.832;2023-04-06T10:22:50;13.10;65.20
47310;DHT22;33046;52.270;6.832;2023-04-06T10:25:00;13.20;65.70
47310;DHT22;33046;52.270;6.832;2023-04-06T10:27:07;13.20;62.60
47310;DHT22;33046;52.270;6.832;2023-04-06T10:29:15;13.30;63.10
47310;DHT22;33046;52.270;6.832;2023-04-06T10:31:26;13.30;64.50
47310;DHT22;33046;52.270;6.832;2023-04-06T10:33:33;13.30;63.40
47310;DHT22;33046;52.270;6.832;2023-04-06T10:35:40;13.40;61.70
47310;DHT22;33046;52.270;6.832;2023-04-06T10:37:52;13.30;61.70
47310;DHT22;33046;52.270;6.832;2023-04-06T10:39:59;13.40;61.00
47310;DHT22;33046;52.270;6.832;2023-04-06T10:42:06;13.50;61.90
47310;DHT22;33046;52.270;6.832;2023-04-06T10:44:20;13.50;61.80
47310;DHT22;33046;52.270;6.832;2023-04-06T10:46:28;13.60;61.90
47310;DHT22;33046;52.270;6.832;2023-04-06T10:48:39;13.70;62.30
47310;DHT22;33046;52.270;6.832;2023-04-06T10:50:47;13.70;61.80
47310;DHT22;33046;52.270;6.832;2023-04-06T10:53:02;13.60;58.30
47310;DHT22;33046;52.270;6.832;2023-04-06T10:55:09;13.70;58.50
47310;DHT22;33046;52.270;6.832;2023-04-06T10:57:16;13.70;58.00
47310;DHT22;33046;52.270;6.832;2023-04-06T10:59:24;13.70;57.60
47310;DHT22;33046;52.270;6.832;2023-04-06T11:01:31;13.80;57.60
47310;DHT22;33046;52.270;6.832;2023-04-06T11:03:42;13.90;58.10
47310;DHT22;33046;52.270;6.832;2023-04-06T11:05:50;13.90;57.80
47310;DHT22;33046;52.270;6.832;2023-04-06T11:07:57;14.00;58.70
47310;DHT22;33046;52.270;6.832;2023-04-06T11:10:04;14.00;57.70
47310;DHT22;33046;52.270;6.832;2023-04-06T11:12:23;14.00;57.20
47310;DHT22;33046;52.270;6.832;2023-04-06T11:14:31;14.00;57.10
47310;DHT22;33046;52.270;6.832;2023-04-06T11:16:38;14.10;57.30
47310;DHT22;33046;52.270;6.832;2023-04-06T11:18:49;14.20;58.70
47310;DHT22;33046;52.270;6.832;2023-04-06T11:20:56;14.30;57.10
47310;DHT22;33046;52.270;6.832;2023-04-06T11:23:03;14.30;57.70
47310;DHT22;33046;52.270;6.832;2023-04-06T11:25:10;14.30;57.30
47310;DHT22;33046;52.270;6.832;2023-04-06T11:27:18;14.40;56.70
47310;DHT22;33046;52.270;6.832;2023-04-06T11:29:26;14.50;56.80
47310;DHT22;33046;52.270;6.832;2023-04-06T11:31:39;14.50;57.20
47310;DHT22;33046;52.270;6.832;2023-04-06T11:33:46;14.60;57.30
47310;DHT22;33046;52.270;6.832;2023-04-06T11:35:57;14.70;57.70
47310;DHT22;33046;52.270;6.832;2023-04-06T11:38:03;14.80;58.20
47310;DHT22;33046;52.270;6.832;2023-04-06T11:40:10;14.80;56.70
47310;DHT22;33046;52.270;6.832;2023-04-06T11:42:24;14.90;56.50
47310;DHT22;33046;52.270;6.832;2023-04-06T11:44:33;15.00;57.20
47310;DHT22;33046;52.270;6.832;2023-04-06T11:46:50;15.00;56.60
47310;DHT22;33046;52.270;6.832;2023-04-06T11:49:01;15.10;55.20
47310;DHT22;33046;52.270;6.832;2023-04-06T11:51:08;15.00;55.20
47310;DHT22;33046;52.270;6.832;2023-04-06T11:53:15;15.00;55.30
47310;DHT22;33046;52.270;6.832;2023-04-06T11:55:22;15.10;55.70
47310;DHT22;33046;52.270;6.832;2023-04-06T11:57:29;15.20;56.60
47310;DHT22;33046;52.270;6.832;2023-04-06T11:59:36;15.20;55.80
47310;DHT22;33046;52.270;6.832;2023-04-06T12:01:46;15.20;56.20
47310;DHT22;33046;52.270;6.832;2023-04-06T12:03:53;15.20;55.60
47310;DHT22;33046;52.270;6.832;2023-04-06T12:06:00;15.30;56.00
47310;DHT22;33046;52.270;6.832;2023-04-06T12:08:06;15.30;56.60
47310;DHT22;33046;52.270;6.832;2023-04-06T12:10:13;15.30;55.70
47310;DHT22;33046;52.270;6.832;2023-04-06T12:12:20;15.30;55.50
47310;DHT22;33046;52.270;6.832;2023-04-06T12:14:27;15.40;56.70
47310;DHT22;33046;52.270;6.832;2023-04-06T12:16:34;15.40;58.20
47310;DHT22;33046;52.270;6.832;2023-04-06T12:18:42;15.40;57.10
47310;DHT22;33046;52.270;6.832;2023-04-06T12:20:49;15.40;56.80
47310;DHT22;33046;52.270;6.832;2023-04-06T12:22:55;15.30;56.80
47310;DHT22;33046;52.270;6.832;2023-04-06T12:25:03;15.30;57.70
47310;DHT22;33046;52.270;6.832;2023-04-06T12:27:10;15.30;56.70
47310;DHT22;33046;52.270;6.832;2023-04-06T12:29:16;15.30;57.00
47310;DHT22;33046;52.270;6.832;2023-04-06T12:31:23;15.20;56.50
47310;DHT22;33046;52.270;6.832;2023-04-06T12:33:30;15.20;56.80
47310;DHT22;33046;52.270;6.832;2023-04-06T12:35:38;15.20;56.90
47310;DHT22;33046;52.270;6.832;2023-04-06T12:37:45;15.20;56.90
47310;DHT22;33046;52.270;6.832;2023-04-06T12:39:52;15.20;56.30
47310;DHT22;33046;52.270;6.832;2023-04-06T12:41:59;15.20;56.20
47310;DHT22;33046;52.270;6.832;2023-04-06T12:44:06;15.10;56.20
47310;DHT22;33046;52.270;6.832;2023-04-06T12:46:13;15.10;56.30
47310;DHT22;33046;52.270;6.832;2023-04-06T12:48:19;15.10;55.70
47310;DHT22;33046;52.270;6.832;2023-04-06T12:50:26;15.10;56.10
47310;DHT22;33046;52.270;6.832;2023-04-06T12:52:34;15.00;55.00
47310;DHT22;33046;52.270;6.832;2023-04-06T12:54:41;15.10;56.00
47310;DHT22;33046;52.270;6.832;2023-04-06T12:56:48;15.10;56.70
47310;DHT22;33046;52.270;6.832;2023-04-06T12:58:55;15.10;56.70
47310;DHT22;33046;52.270;6.832;2023-04-06T13:01:06;15.00;56.90
47310;DHT22;33046;52.270;6.832;2023-04-06T13:03:13;15.00;56.80
47310;DHT22;33046;52.270;6.832;2023-04-06T13:05:20;15.00;56.90
47310;DHT22;33046;52.270;6.832;2023-04-06T13:07:26;15.00;57.70
47310;DHT22;33046;52.270;6.832;2023-04-06T13:09:34;14.90;57.80
47310;DHT22;33046;52.270;6.832;2023-04-06T13:11:41;15.00;58.40
47310;DHT22;33046;52.270;6.832;2023-04-06T13:13:48;14.90;59.30
47310;DHT22;33046;52.270;6.832;2023-04-06T13:15:59;14.90;59.90
47310;DHT22;33046;52.270;6.832;2023-04-06T13:18:06;14.80;60.10
47310;DHT22;33046;52.270;6.832;2023-04-06T13:20:13;14.80;60.20
47310;DHT22;33046;52.270;6.832;2023-04-06T13:22:20;14.80;60.20
47310;DHT22;33046;52.270;6.832;2023-04-06T13:24:27;14.80;60.10
47310;DHT22;33046;52.270;6.832;2023-04-06T13:26:35;14.70;59.90
47310;DHT22;33046;52.270;6.832;2023-04-06T13:28:42;14.70;59.60
47310;DHT22;33046;52.270;6.832;2023-04-06T13:30:49;14.70;60.10
47310;DHT22;33046;52.270;6.832;2023-04-06T13:32:56;14.70;60.30
47310;DHT22;33046;52.270;6.832;2023-04-06T13:35:03;14.60;60.30
47310;DHT22;33046;52.270;6.832;2023-04-06T13:37:11;14.60;60.20
47310;DHT22;33046;52.270;6.832;2023-04-06T13:39:18;14.60;59.60
47310;DHT22;33046;52.270;6.832;2023-04-06T13:41:25;14.60;59.50
47310;DHT22;33046;52.270;6.832;2023-04-06T13:43:33;14.60;59.90
47310;DHT22;33046;52.270;6.832;2023-04-06T13:45:40;14.50;60.50